sensor_id;sensor_type;location;lat;lon;timestamp;pressure;altitude;pressure_sealevel;temperature;humidity
34177;BME280;20450;49.074;9.158;2023-05-17T00:00:41;100201.03;;;9.45;71.32
34177;BME280;20450;49.074;9.158;2023-05-17T00:03:08;100211.75;;;9.39;71.43
34177;BME280;20450;49.074;9.158;2023-05-17T00:05:35;100212.41;;;9.41;71.59
34177;BME280;20450;49.074;9.158;2023-05-17T00:08:04;100214.22;;;9.34;71.91
34177;BME280;20450;49.074;9.158;2023-05-17T00:10:32;100217.09;;;9.32;71.56
34177;BME280;20450;49.074;9.158;2023-05-17T00:12:59;100214.59;;;9.31;72.55
34177;BME280;20450;49.074;9.158;2023-05-17T00:15:26;100222.81;;;9.23;72.10
34177;BME280;20450;49.074;9.158;2023-05-17T00:17:54;100217.88;;;9.05;73.68
34177;BME280;20450;49.074;9.158;2023-05-17T00:20:22;100225.34;;;8.89;74.98
34177;BME280;20450;49.074;9.158;2023-05-17T00:22:49;100232.00;;;8.93;75.05
34177;BME280;20450;49.074;9.158;2023-05-17T00:25:17;100236.00;;;8.97;73.71
34177;BME280;20450;49.074;9.158;2023-05-17T00:27:44;100229.88;;;9.03;73.91
34177;BME280;20450;49.074;9.158;2023-05-17T00:30:12;100232.81;;;9.08;73.86
34177;BME280;20450;49.074;9.158;2023-05-17T00:32:39;100234.13;;;9.12;75.21
34177;BME280;20450;49.074;9.158;2023-05-17T00:35:06;100239.03;;;9.08;75.50
34177;BME280;20450;49.074;9.158;2023-05-17T00:37:33;100243.25;;;8.96;76.29
34177;BME280;20450;49.074;9.158;2023-05-17T00:40:03;100239.72;;;8.96;76.35
34177;BME280;20450;49.074;9.158;2023-05-17T00:42:32;100245.63;;;8.56;78.03
34177;BME280;20450;49.074;9.158;2023-05-17T00:44:59;100252.25;;;8.39;78.61
34177;BME280;20450;49.074;9.158;2023-05-17T00:47:26;100253.97;;;8.17;78.92
34177;BME280;20450;49.074;9.158;2023-05-17T00:49:53;100248.59;;;8.02;79.52
34177;BME280;20450;49.074;9.158;2023-05-17T00:52:21;100251.56;;;8.07;80.32
34177;BME280;20450;49.074;9.158;2023-05-17T00:54:50;100260.75;;;8.13;80.32
34177;BME280;20450;49.074;9.158;2023-05-17T00:57:18;100251.28;;;8.17;80.19
34177;BME280;20450;49.074;9.158;2023-05-17T00:59:48;100257.31;;;8.19;80.54
34177;BME280;20450;49.074;9.158;2023-05-17T01:02:17;100256.66;;;8.02;79.35
34177;BME280;20450;49.074;9.158;2023-05-17T01:04:45;100253.81;;;7.81;79.25
34177;BME280;20450;49.074;9.158;2023-05-17T01:07:14;100261.09;;;7.81;79.63
34177;BME280;20450;49.074;9.158;2023-05-17T01:09:45;100260.13;;;7.74;80.35
34177;BME280;20450;49.074;9.158;2023-05-17T01:12:21;100259.50;;;7.86;80.68
34177;BME280;20450;49.074;9.158;2023-05-17T01:15:07;100266.94;;;7.99;80.63
34177;BME280;20450;49.074;9.158;2023-05-17T01:17:49;100267.22;;;8.04;79.57
34177;BME280;20450;49.074;9.158;2023-05-17T01:20:24;100264.72;;;7.88;78.83
34177;BME280;20450;49.074;9.158;2023-05-17T01:23:09;100275.66;;;7.86;79.81
34177;BME280;20450;49.074;9.158;2023-05-17T01:25:59;100273.03;;;7.78;79.79
34177;BME280;20450;49.074;9.158;2023-05-17T01:28:36;100275.72;;;7.78;79.77
34177;BME280;20450;49.074;9.158;2023-05-17T01:31:06;100282.41;;;7.82;80.00
34177;BME280;20450;49.074;9.158;2023-05-17T01:33:36;100283.06;;;7.84;80.53
34177;BME280;20450;49.074;9.158;2023-05-17T01:36:05;100279.81;;;7.89;79.74
34177;BME280;20450;49.074;9.158;2023-05-17T01:38:33;100280.75;;;7.96;79.25
34177;BME280;20450;49.074;9.158;2023-05-17T01:41:08;100273.28;;;8.06;79.86
34177;BME280;20450;49.074;9.158;2023-05-17T01:43:45;100283.94;;;8.14;79.79
34177;BME280;20450;49.074;9.158;2023-05-17T01:46:25;100279.03;;;8.18;78.23
34177;BME280;20450;49.074;9.158;2023-05-17T01:49:05;100276.66;;;8.23;77.81
34177;BME280;20450;49.074;9.158;2023-05-17T01:51:43;100281.50;;;8.27;77.62
34177;BME280;20450;49.074;9.158;2023-05-17T01:54:14;100284.63;;;8.31;77.11
34177;BME280;20450;49.074;9.158;2023-05-17T01:56:51;100283.63;;;8.32;77.25
34177;BME280;20450;49.074;9.158;2023-05-17T01:59:25;100278.81;;;8.27;77.48
34177;BME280;20450;49.074;9.158;2023-05-17T02:01:58;100285.16;;;8.12;76.76
34177;BME280;20450;49.074;9.158;2023-05-17T02:04:29;100285.75;;;7.84;76.58
34177;BME280;20450;49.074;9.158;2023-05-17T02:07:00;100288.69;;;7.75;77.42
34177;BME280;20450;49.074;9.158;2023-05-17T02:09:28;100292.22;;;7.75;77.41
34177;BME280;20450;49.074;9.158;2023-05-17T02:11:55;100293.22;;;7.74;76.88
34177;BME280;20450;49.074;9.158;2023-05-17T02:14:22;100290.50;;;7.82;76.94
34177;BME280;20450;49.074;9.158;2023-05-17T02:16:50;100299.84;;;7.86;77.01
34177;BME280;20450;49.074;9.158;2023-05-17T02:19:17;100292.28;;;7.90;76.27
34177;BME280;20450;49.074;9.158;2023-05-17T02:21:44;100292.94;;;7.69;77.13
34177;BME280;20450;49.074;9.158;2023-05-17T02:27:07;100299.03;;;7.63;78.75
34177;BME280;20450;49.074;9.158;2023-05-17T02:29:35;100302.06;;;7.60;79.45
34177;BME280;20450;49.074;9.158;2023-05-17T02:32:04;100298.38;;;7.61;79.26
34177;BME280;20450;49.074;9.158;2023-05-17T02:34:32;100296.47;;;7.70;79.06
34177;BME280;20450;49.074;9.158;2023-05-17T02:36:59;100292.88;;;7.77;79.53
34177;BME280;20450;49.074;9.158;2023-05-17T02:39:26;100305.97;;;7.80;78.81
34177;BME280;20450;49.074;9.158;2023-05-17T02:41:53;100304.00;;;7.74;79.58
34177;BME280;20450;49.074;9.158;2023-05-17T02:44:20;100303.69;;;7.69;79.85
34177;BME280;20450;49.074;9.158;2023-05-17T02:46:48;100305.19;;;7.72;80.70
34177;BME280;20450;49.074;9.158;2023-05-17T02:49:15;100306.19;;;7.71;81.00
34177;BME280;20450;49.074;9.158;2023-05-17T02:51:42;100313.44;;;7.70;80.59
34177;BME280;20450;49.074;9.158;2023-05-17T02:54:10;100308.69;;;7.72;80.90
34177;BME280;20450;49.074;9.158;2023-05-17T02:56:37;100305.03;;;7.73;81.12
34177;BME280;20450;49.074;9.158;2023-05-17T02:59:04;100313.19;;;7.80;80.95
34177;BME280;20450;49.074;9.158;2023-05-17T03:01:32;100320.66;;;7.70;79.54
34177;BME280;20450;49.074;9.158;2023-05-17T03:04:01;100318.47;;;7.73;79.58
34177;BME280;20450;49.074;9.158;2023-05-17T03:06:28;100320.44;;;7.79;79.41
34177;BME280;20450;49.074;9.158;2023-05-17T03:12:58;100322.50;;;7.69;80.24
34177;BME280;20450;49.074;9.158;2023-05-17T03:15:36;100322.88;;;7.66;81.22
34177;BME280;20450;49.074;9.158;2023-05-17T03:18:03;100324.03;;;7.72;81.17
34177;BME280;20450;49.074;9.158;2023-05-17T03:20:32;100325.81;;;7.79;80.39
34177;BME280;20450;49.074;9.158;2023-05-17T03:22:59;100322.09;;;7.80;78.89
34177;BME280;20450;49.074;9.158;2023-05-17T03:25:26;100330.66;;;7.84;78.44
34177;BME280;20450;49.074;9.158;2023-05-17T03:27:54;100326.25;;;7.83;77.77
34177;BME280;20450;49.074;9.158;2023-05-17T03:30:21;100329.63;;;7.85;77.86
34177;BME280;20450;49.074;9.158;2023-05-17T03:32:48;100343.72;;;7.87;77.48
34177;BME280;20450;49.074;9.158;2023-05-17T03:35:16;100344.91;;;7.84;77.04
34177;BME280;20450;49.074;9.158;2023-05-17T03:37:48;100333.34;;;7.84;76.88
34177;BME280;20450;49.074;9.158;2023-05-17T03:40:16;100340.38;;;7.85;77.28
34177;BME280;20450;49.074;9.158;2023-05-17T03:42:43;100342.94;;;7.78;76.97
34177;BME280;20450;49.074;9.158;2023-05-17T03:45:11;100346.25;;;7.66;76.86
34177;BME280;20450;49.074;9.158;2023-05-17T03:47:38;100346.88;;;7.68;77.08
34177;BME280;20450;49.074;9.158;2023-05-17T03:50:07;100347.00;;;7.52;77.32
34177;BME280;20450;49.074;9.158;2023-05-17T03:52:35;100350.19;;;7.25;78.09
34177;BME280;20450;49.074;9.158;2023-05-17T03:55:04;100349.06;;;7.19;78.81
34177;BME280;20450;49.074;9.158;2023-05-17T03:57:32;100347.81;;;6.99;78.75
34177;BME280;20450;49.074;9.158;2023-05-17T04:00:00;100353.31;;;7.06;78.49
34177;BME280;20450;49.074;9.158;2023-05-17T04:02:29;100351.50;;;6.98;78.70
34177;BME280;20450;49.074;9.158;2023-05-17T04:04:56;100353.28;;;6.75;79.32
34177;BME280;20450;49.074;9.158;2023-05-17T04:07:23;100361.63;;;6.88;79.40
34177;BME280;20450;49.074;9.158;2023-05-17T04:09:51;100373.13;;;7.05;78.93
34177;BME280;20450;49.074;9.158;2023-05-17T04:12:19;100369.00;;;6.86;79.16
34177;BME280;20450;49.074;9.158;2023-05-17T04:14:46;100363.09;;;6.99;80.05
34177;BME280;20450;49.074;9.158;2023-05-17T04:17:14;100367.38;;;7.16;79.34
34177;BME280;20450;49.074;9.158;2023-05-17T04:19:43;100374.00;;;7.36;78.45
34177;BME280;20450;49.074;9.158;2023-05-17T04:22:11;100374.72;;;7.52;77.84
34177;BME280;20450;49.074;9.158;2023-05-17T04:24:38;100382.00;;;7.66;78.06
34177;BME280;20450;49.074;9.158;2023-05-17T04:27:05;100371.34;;;7.81;77.05
34177;BME280;20450;49.074;9.158;2023-05-17T04:29:34;100382.03;;;7.89;77.00
34177;BME280;20450;49.074;9.158;2023-05-17T04:32:02;100385.56;;;7.89;76.54
34177;BME280;20450;49.074;9.158;2023-05-17T04:34:29;100386.22;;;7.91;76.42
34177;BME280;20450;49.074;9.158;2023-05-17T04:36:56;100384.22;;;8.08;77.04
34177;BME280;20450;49.074;9.158;2023-05-17T04:39:24;100390.84;;;8.43;75.88
34177;BME280;20450;49.074;9.158;2023-05-17T04:41:52;100386.88;;;8.68;75.01
34177;BME280;20450;49.074;9.158;2023-05-17T04:44:19;100389.56;;;8.68;75.43
34177;BME280;20450;49.074;9.158;2023-05-17T04:46:48;100396.66;;;8.69;74.57
34177;BME280;20450;49.074;9.158;2023-05-17T04:49:15;100405.00;;;8.74;73.51
34177;BME280;20450;49.074;9.158;2023-05-17T04:51:42;100403.88;;;8.54;73.01
34177;BME280;20450;49.074;9.158;2023-05-17T04:54:10;100413.53;;;8.63;72.67
34177;BME280;20450;49.074;9.158;2023-05-17T04:56:37;100405.28;;;8.64;72.32
34177;BME280;20450;49.074;9.158;2023-05-17T04:59:10;100412.34;;;8.80;72.24
34177;BME280;20450;49.074;9.158;2023-05-17T05:01:37;100413.91;;;9.03;71.54
34177;BME280;20450;49.074;9.158;2023-05-17T05:04:05;100411.31;;;9.24;70.56
34177;BME280;20450;49.074;9.158;2023-05-17T05:06:38;100415.63;;;9.54;69.71
34177;BME280;20450;49.074;9.158;2023-05-17T05:09:05;100416.69;;;9.95;68.73
34177;BME280;20450;49.074;9.158;2023-05-17T05:11:35;100422.44;;;10.49;66.22
34177;BME280;20450;49.074;9.158;2023-05-17T05:14:03;100415.88;;;10.86;65.73
34177;BME280;20450;49.074;9.158;2023-05-17T05:16:30;100427.97;;;11.30;64.26
34177;BME280;20450;49.074;9.158;2023-05-17T05:18:57;100431.13;;;11.81;62.38
34177;BME280;20450;49.074;9.158;2023-05-17T05:21:25;100434.34;;;12.11;61.56
34177;BME280;20450;49.074;9.158;2023-05-17T05:24:18;100439.16;;;12.41;60.56
34177;BME280;20450;49.074;9.158;2023-05-17T05:26:46;100438.97;;;12.69;59.86
34177;BME280;20450;49.074;9.158;2023-05-17T05:29:16;100440.16;;;13.18;58.05
34177;BME280;20450;49.074;9.158;2023-05-17T05:32:10;100441.53;;;13.47;57.79
34177;BME280;20450;49.074;9.158;2023-05-17T05:34:43;100447.31;;;13.70;56.59
34177;BME280;20450;49.074;9.158;2023-05-17T05:37:11;100442.31;;;13.67;56.71
34177;BME280;20450;49.074;9.158;2023-05-17T05:39:38;100447.09;;;14.09;55.04
34177;BME280;20450;49.074;9.158;2023-05-17T05:45:24;100445.44;;;15.73;50.96
34177;BME280;20450;49.074;9.158;2023-05-17T05:47:53;100451.41;;;16.12;49.70
34177;BME280;20450;49.074;9.158;2023-05-17T05:50:21;100450.56;;;16.29;49.70
34177;BME280;20450;49.074;9.158;2023-05-17T05:56:11;100444.28;;;17.16;47.24
34177;BME280;20450;49.074;9.158;2023-05-17T05:58:38;100448.09;;;17.89;45.71
34177;BME280;20450;49.074;9.158;2023-05-17T06:04:11;100452.97;;;17.87;43.56
34177;BME280;20450;49.074;9.158;2023-05-17T06:06:38;100454.94;;;18.31;43.02
34177;BME280;20450;49.074;9.158;2023-05-17T06:09:07;100458.25;;;18.33;43.23
34177;BME280;20450;49.074;9.158;2023-05-17T06:11:34;100466.28;;;18.51;42.76
34177;BME280;20450;49.074;9.158;2023-05-17T06:14:01;100457.84;;;19.02;41.93
34177;BME280;20450;49.074;9.158;2023-05-17T06:16:29;100458.38;;;19.54;40.68
34177;BME280;20450;49.074;9.158;2023-05-17T06:18:56;100461.56;;;19.68;40.37
34177;BME280;20450;49.074;9.158;2023-05-17T06:21:22;100461.25;;;20.29;38.72
34177;BME280;20450;49.074;9.158;2023-05-17T06:23:49;100469.41;;;19.59;39.26
34177;BME280;20450;49.074;9.158;2023-05-17T06:26:18;100475.66;;;20.41;39.24
34177;BME280;20450;49.074;9.158;2023-05-17T06:28:45;100473.72;;;20.68;37.83
34177;BME280;20450;49.074;9.158;2023-05-17T06:36:01;100480.38;;;20.02;38.59
34177;BME280;20450;49.074;9.158;2023-05-17T06:38:33;100484.03;;;19.86;38.59
34177;BME280;20450;49.074;9.158;2023-05-17T06:41:00;100477.88;;;19.58;39.74
34177;BME280;20450;49.074;9.158;2023-05-17T06:43:28;100483.34;;;20.17;38.25
34177;BME280;20450;49.074;9.158;2023-05-17T06:45:55;100475.53;;;20.09;38.10
34177;BME280;20450;49.074;9.158;2023-05-17T06:48:22;100485.75;;;19.32;39.18
34177;BME280;20450;49.074;9.158;2023-05-17T06:50:51;100485.28;;;19.24;39.74
34177;BME280;20450;49.074;9.158;2023-05-17T06:53:19;100488.47;;;18.83;40.72
34177;BME280;20450;49.074;9.158;2023-05-17T06:55:46;100499.84;;;17.33;42.11
34177;BME280;20450;49.074;9.158;2023-05-17T06:58:13;100494.09;;;18.20;41.42
34177;BME280;20450;49.074;9.158;2023-05-17T07:00:57;100495.69;;;18.16;43.08
34177;BME280;20450;49.074;9.158;2023-05-17T07:03:25;100490.84;;;18.79;41.61
34177;BME280;20450;49.074;9.158;2023-05-17T07:05:52;100487.88;;;19.14;41.57
34177;BME280;20450;49.074;9.158;2023-05-17T07:08:18;100480.66;;;19.08;41.52
34177;BME280;20450;49.074;9.158;2023-05-17T07:11:11;100488.72;;;19.14;39.50
34177;BME280;20450;49.074;9.158;2023-05-17T07:13:39;100484.63;;;19.17;40.71
34177;BME280;20450;49.074;9.158;2023-05-17T07:16:08;100500.34;;;18.44;40.05
34177;BME280;20450;49.074;9.158;2023-05-17T07:18:35;100497.31;;;18.17;41.19
34177;BME280;20450;49.074;9.158;2023-05-17T07:21:30;100501.78;;;18.46;41.37
34177;BME280;20450;49.074;9.158;2023-05-17T07:23:59;100484.75;;;19.38;39.90
34177;BME280;20450;49.074;9.158;2023-05-17T07:26:26;100492.00;;;19.49;38.77
34177;BME280;20450;49.074;9.158;2023-05-17T07:32:16;100499.66;;;18.98;40.24
34177;BME280;20450;49.074;9.158;2023-05-17T07:34:43;100488.06;;;19.07;41.01
34177;BME280;20450;49.074;9.158;2023-05-17T07:37:11;100484.13;;;19.53;40.33
34177;BME280;20450;49.074;9.158;2023-05-17T07:39:38;100498.34;;;19.50;40.02
34177;BME280;20450;49.074;9.158;2023-05-17T07:42:06;100483.78;;;19.88;38.61
34177;BME280;20450;49.074;9.158;2023-05-17T07:44:33;100494.34;;;19.24;40.74
34177;BME280;20450;49.074;9.158;2023-05-17T07:50:44;100494.78;;;18.83;40.64
34177;BME280;20450;49.074;9.158;2023-05-17T07:57:03;100491.28;;;18.15;42.09
34177;BME280;20450;49.074;9.158;2023-05-17T07:59:31;100496.00;;;17.80;41.82
34177;BME280;20450;49.074;9.158;2023-05-17T08:01:58;100500.94;;;18.06;43.24
34177;BME280;20450;49.074;9.158;2023-05-17T08:04:25;100492.69;;;18.18;41.23
34177;BME280;20450;49.074;9.158;2023-05-17T08:06:53;100488.44;;;18.66;41.54
34177;BME280;20450;49.074;9.158;2023-05-17T08:09:20;100499.59;;;17.00;42.33
34177;BME280;20450;49.074;9.158;2023-05-17T08:11:47;100500.94;;;13.81;50.99
34177;BME280;20450;49.074;9.158;2023-05-17T08:14:14;100497.75;;;14.41;50.94
34177;BME280;20450;49.074;9.158;2023-05-17T08:16:44;100493.72;;;15.85;48.61
34177;BME280;20450;49.074;9.158;2023-05-17T08:19:12;100485.00;;;16.53;45.69
34177;BME280;20450;49.074;9.158;2023-05-17T08:25:23;100482.97;;;17.13;45.67
34177;BME280;20450;49.074;9.158;2023-05-17T08:27:50;100485.03;;;15.33;47.49
34177;BME280;20450;49.074;9.158;2023-05-17T08:30:18;100491.81;;;15.85;46.29
34177;BME280;20450;49.074;9.158;2023-05-17T08:32:54;100493.25;;;14.84;49.45
34177;BME280;20450;49.074;9.158;2023-05-17T08:35:22;100487.91;;;16.11;45.25
34177;BME280;20450;49.074;9.158;2023-05-17T08:37:52;100489.97;;;16.45;44.52
34177;BME280;20450;49.074;9.158;2023-05-17T08:40:56;100476.91;;;16.88;42.84
34177;BME280;20450;49.074;9.158;2023-05-17T08:43:23;100482.41;;;17.22;42.58
34177;BME280;20450;49.074;9.158;2023-05-17T08:45:53;100484.53;;;17.09;40.21
34177;BME280;20450;49.074;9.158;2023-05-17T08:48:20;100474.22;;;17.11;41.63
34177;BME280;20450;49.074;9.158;2023-05-17T08:50:49;100476.53;;;17.77;41.64
34177;BME280;20450;49.074;9.158;2023-05-17T08:53:18;100468.50;;;17.98;41.54
34177;BME280;20450;49.074;9.158;2023-05-17T08:55:46;100470.16;;;18.11;41.37
34177;BME280;20450;49.074;9.158;2023-05-17T08:58:16;100468.22;;;18.11;39.04
34177;BME280;20450;49.074;9.158;2023-05-17T09:00:49;100476.72;;;17.98;39.38
34177;BME280;20450;49.074;9.158;2023-05-17T09:03:18;100478.66;;;15.21;44.27
34177;BME280;20450;49.074;9.158;2023-05-17T09:05:49;100481.06;;;15.90;45.88
34177;BME280;20450;49.074;9.158;2023-05-17T09:08:17;100480.44;;;16.06;42.81
34177;BME280;20450;49.074;9.158;2023-05-17T09:10:44;100474.31;;;14.96;45.02
34177;BME280;20450;49.074;9.158;2023-05-17T09:13:11;100475.16;;;14.96;45.21
34177;BME280;20450;49.074;9.158;2023-05-17T09:16:11;100477.38;;;15.24;45.17
34177;BME280;20450;49.074;9.158;2023-05-17T09:18:39;100473.41;;;15.99;44.47
34177;BME280;20450;49.074;9.158;2023-05-17T09:21:08;100476.94;;;16.47;43.43
34177;BME280;20450;49.074;9.158;2023-05-17T09:23:39;100476.66;;;16.66;41.92
34177;BME280;20450;49.074;9.158;2023-05-17T09:26:06;100469.63;;;16.59;42.78
34177;BME280;20450;49.074;9.158;2023-05-17T09:28:40;100471.81;;;16.21;43.63
34177;BME280;20450;49.074;9.158;2023-05-17T09:31:10;100473.56;;;16.04;42.15
34177;BME280;20450;49.074;9.158;2023-05-17T09:33:41;100477.13;;;15.86;43.77
34177;BME280;20450;49.074;9.158;2023-05-17T09:36:17;100485.41;;;16.09;43.24
34177;BME280;20450;49.074;9.158;2023-05-17T09:38:53;100486.75;;;15.89;44.60
34177;BME280;20450;49.074;9.158;2023-05-17T09:41:25;100487.72;;;15.94;45.28
34177;BME280;20450;49.074;9.158;2023-05-17T09:43:52;100494.00;;;15.95;46.42
34177;BME280;20450;49.074;9.158;2023-05-17T09:46:25;100492.00;;;16.02;46.71
34177;BME280;20450;49.074;9.158;2023-05-17T09:48:53;100475.00;;;15.88;46.25
34177;BME280;20450;49.074;9.158;2023-05-17T09:51:32;100491.00;;;15.85;46.43
34177;BME280;20450;49.074;9.158;2023-05-17T09:53:59;100491.13;;;15.90;47.09
34177;BME280;20450;49.074;9.158;2023-05-17T09:56:27;100489.06;;;15.85;46.31
34177;BME280;20450;49.074;9.158;2023-05-17T09:58:55;100497.75;;;15.94;45.57
34177;BME280;20450;49.074;9.158;2023-05-17T10:01:26;100494.91;;;15.89;45.25
34177;BME280;20450;49.074;9.158;2023-05-17T10:03:58;100496.13;;;15.56;45.49
34177;BME280;20450;49.074;9.158;2023-05-17T10:06:27;100505.81;;;15.70;46.45
34177;BME280;20450;49.074;9.158;2023-05-17T10:09:17;100508.47;;;15.34;46.10
34177;BME280;20450;49.074;9.158;2023-05-17T10:11:49;100505.50;;;15.42;45.89
34177;BME280;20450;49.074;9.158;2023-05-17T10:14:22;100500.22;;;15.23;45.50
34177;BME280;20450;49.074;9.158;2023-05-17T10:16:55;100501.09;;;15.41;45.84
34177;BME280;20450;49.074;9.158;2023-05-17T10:19:24;100504.38;;;15.50;44.88
34177;BME280;20450;49.074;9.158;2023-05-17T10:21:52;100515.69;;;14.49;46.54
34177;BME280;20450;49.074;9.158;2023-05-17T10:24:22;100516.28;;;14.51;47.62
34177;BME280;20450;49.074;9.158;2023-05-17T10:26:53;100510.16;;;14.31;47.32
34177;BME280;20450;49.074;9.158;2023-05-17T10:29:22;100509.84;;;14.45;46.26
34177;BME280;20450;49.074;9.158;2023-05-17T10:31:49;100511.84;;;14.19;47.38
34177;BME280;20450;49.074;9.158;2023-05-17T10:34:19;100507.94;;;14.08;48.97
34177;BME280;20450;49.074;9.158;2023-05-17T10:36:48;100504.00;;;14.04;48.27
34177;BME280;20450;49.074;9.158;2023-05-17T10:39:16;100504.72;;;14.62;46.41
34177;BME280;20450;49.074;9.158;2023-05-17T10:41:45;100503.50;;;15.07;46.15
34177;BME280;20450;49.074;9.158;2023-05-17T10:44:15;100504.75;;;15.29;47.00
34177;BME280;20450;49.074;9.158;2023-05-17T10:46:50;100506.41;;;15.54;45.15
34177;BME280;20450;49.074;9.158;2023-05-17T10:49:23;100508.22;;;15.42;45.91
34177;BME280;20450;49.074;9.158;2023-05-17T10:51:52;100503.31;;;15.87;47.20
34177;BME280;20450;49.074;9.158;2023-05-17T10:54:33;100514.03;;;16.00;47.35
34177;BME280;20450;49.074;9.158;2023-05-17T10:57:03;100515.41;;;16.09;48.14
34177;BME280;20450;49.074;9.158;2023-05-17T10:59:34;100514.97;;;15.40;47.66
34177;BME280;20450;49.074;9.158;2023-05-17T11:02:03;100508.31;;;15.54;47.41
34177;BME280;20450;49.074;9.158;2023-05-17T11:04:36;100508.00;;;15.44;47.14
34177;BME280;20450;49.074;9.158;2023-05-17T11:07:20;100513.59;;;15.67;47.10
34177;BME280;20450;49.074;9.158;2023-05-17T11:09:49;100512.16;;;15.64;47.99
34177;BME280;20450;49.074;9.158;2023-05-17T11:12:30;100518.22;;;15.66;48.07
34177;BME280;20450;49.074;9.158;2023-05-17T11:15:04;100511.09;;;15.65;48.00
34177;BME280;20450;49.074;9.158;2023-05-17T11:17:35;100509.28;;;15.77;48.09
34177;BME280;20450;49.074;9.158;2023-05-17T11:20:32;100522.22;;;15.82;48.14
34177;BME280;20450;49.074;9.158;2023-05-17T11:23:01;100517.22;;;15.79;48.25
34177;BME280;20450;49.074;9.158;2023-05-17T11:25:30;100518.53;;;15.77;48.27
34177;BME280;20450;49.074;9.158;2023-05-17T11:27:58;100505.81;;;15.52;48.22
34177;BME280;20450;49.074;9.158;2023-05-17T11:30:28;100518.97;;;15.55;47.29
34177;BME280;20450;49.074;9.158;2023-05-17T11:32:58;100511.88;;;15.73;47.21
34177;BME280;20450;49.074;9.158;2023-05-17T11:35:35;100521.53;;;15.68;47.23
34177;BME280;20450;49.074;9.158;2023-05-17T11:38:13;100507.41;;;15.60;49.41
34177;BME280;20450;49.074;9.158;2023-05-17T11:40:43;100510.53;;;15.82;48.30
34177;BME280;20450;49.074;9.158;2023-05-17T11:43:12;100512.91;;;15.90;48.42
34177;BME280;20450;49.074;9.158;2023-05-17T11:45:41;100509.34;;;16.07;47.26
34177;BME280;20450;49.074;9.158;2023-05-17T11:48:11;100508.66;;;16.12;47.18
34177;BME280;20450;49.074;9.158;2023-05-17T11:50:41;100505.31;;;16.28;46.41
34177;BME280;20450;49.074;9.158;2023-05-17T11:53:10;100491.91;;;16.26;45.88
34177;BME280;20450;49.074;9.158;2023-05-17T11:55:40;100493.75;;;16.14;46.74
34177;BME280;20450;49.074;9.158;2023-05-17T11:58:09;100489.63;;;15.57;49.06
34177;BME280;20450;49.074;9.158;2023-05-17T12:00:38;100496.44;;;15.85;48.32
34177;BME280;20450;49.074;9.158;2023-05-17T12:03:19;100498.44;;;16.07;46.49
34177;BME280;20450;49.074;9.158;2023-05-17T12:05:54;100498.78;;;16.29;46.76
34177;BME280;20450;49.074;9.158;2023-05-17T12:08:29;100499.66;;;16.41;46.76
34177;BME280;20450;49.074;9.158;2023-05-17T12:10:57;100497.66;;;16.18;46.94
34177;BME280;20450;49.074;9.158;2023-05-17T12:13:27;100497.34;;;16.26;45.73
34177;BME280;20450;49.074;9.158;2023-05-17T12:15:57;100496.16;;;16.04;47.30
34177;BME280;20450;49.074;9.158;2023-05-17T12:18:33;100488.25;;;15.48;47.43
34177;BME280;20450;49.074;9.158;2023-05-17T12:21:04;100499.28;;;15.90;46.95
34177;BME280;20450;49.074;9.158;2023-05-17T12:23:34;100488.16;;;16.09;45.45
34177;BME280;20450;49.074;9.158;2023-05-17T12:26:07;100502.50;;;16.16;45.06
34177;BME280;20450;49.074;9.158;2023-05-17T12:28:38;100491.25;;;16.42;45.31
34177;BME280;20450;49.074;9.158;2023-05-17T12:31:08;100496.91;;;16.59;45.03
34177;BME280;20450;49.074;9.158;2023-05-17T12:33:39;100486.25;;;16.69;44.33
34177;BME280;20450;49.074;9.158;2023-05-17T12:36:10;100481.41;;;16.71;45.25
34177;BME280;20450;49.074;9.158;2023-05-17T12:38:40;100481.19;;;16.95;45.11
34177;BME280;20450;49.074;9.158;2023-05-17T12:41:10;100481.41;;;17.05;43.34
34177;BME280;20450;49.074;9.158;2023-05-17T12:43:38;100479.06;;;15.97;43.34
34177;BME280;20450;49.074;9.158;2023-05-17T12:46:08;100476.00;;;16.23;43.35
34177;BME280;20450;49.074;9.158;2023-05-17T12:48:37;100475.84;;;16.18;45.79
34177;BME280;20450;49.074;9.158;2023-05-17T12:51:06;100473.69;;;16.79;45.34
34177;BME280;20450;49.074;9.158;2023-05-17T12:53:39;100473.84;;;17.19;43.20
34177;BME280;20450;49.074;9.158;2023-05-17T12:56:14;100462.19;;;16.89;42.86
34177;BME280;20450;49.074;9.158;2023-05-17T12:58:42;100464.69;;;17.13;42.52
34177;BME280;20450;49.074;9.158;2023-05-17T13:01:10;100466.59;;;17.36;42.53
34177;BME280;20450;49.074;9.158;2023-05-17T13:03:37;100462.22;;;17.00;42.00
34177;BME280;20450;49.074;9.158;2023-05-17T13:06:06;100458.13;;;16.68;43.63
34177;BME280;20450;49.074;9.158;2023-05-17T13:08:36;100463.41;;;16.93;43.58
34177;BME280;20450;49.074;9.158;2023-05-17T13:11:08;100466.47;;;17.19;42.69
34177;BME280;20450;49.074;9.158;2023-05-17T13:13:36;100453.91;;;17.30;42.24
34177;BME280;20450;49.074;9.158;2023-05-17T13:16:04;100462.81;;;17.25;42.22
34177;BME280;20450;49.074;9.158;2023-05-17T13:18:47;100467.31;;;17.08;42.94
34177;BME280;20450;49.074;9.158;2023-05-17T13:21:18;100461.50;;;17.05;42.62
34177;BME280;20450;49.074;9.158;2023-05-17T13:23:48;100460.63;;;16.81;42.04
34177;BME280;20450;49.074;9.158;2023-05-17T13:26:17;100464.56;;;16.85;41.52
34177;BME280;20450;49.074;9.158;2023-05-17T13:28:45;100466.59;;;16.90;42.49
34177;BME280;20450;49.074;9.158;2023-05-17T13:31:12;100461.94;;;16.67;43.16
34177;BME280;20450;49.074;9.158;2023-05-17T13:33:39;100451.84;;;16.68;43.93
34177;BME280;20450;49.074;9.158;2023-05-17T13:36:06;100458.72;;;16.29;43.60
34177;BME280;20450;49.074;9.158;2023-05-17T13:38:33;100459.00;;;16.39;44.38
34177;BME280;20450;49.074;9.158;2023-05-17T13:41:04;100463.06;;;16.19;43.57
34177;BME280;20450;49.074;9.158;2023-05-17T13:43:31;100457.00;;;16.17;43.37
34177;BME280;20450;49.074;9.158;2023-05-17T13:45:59;100466.66;;;16.01;44.15